Current | Forecast
Updated: 7:30 AM CET on December 13, 2017
Observed at Alicante, Spain
Temperature 5°C
Windchill 3°C
Humidity 65%
Dew Point -1°C
Wind SW at 9 km/h
Pressure 1026 hPa (Steady)
Conditions Clear
Visibility -
UV N/A
Clouds
Yesterday's Maximum 16°C
Yesterday's Minimum 5°C approx.
Yesterday's Heating Degree Days 14 approx.
Sunrise8:12 AM CET
Sunset5:44 PM CET
Moon Rise3:28 AM CET
Moon Set3:10 PM CET
Moon PhaseMoon Phase
Waning Crescent
Raw METARMETAR LEAL 130630Z 23005KT 200V270 CAVOK 05/M01 Q1026 NOSIG


Monday
. High: 86° F.
Tuesday
. High: 86° F.
Wednesday
. High: 77° F.
Thursday
. High: 78° F.
Friday
. High: 77° F.
Saturday
. High: 84° F.
Sunday
. High: 80° F.
Monday
. High: 78° F.

Click here for Marine Information
Scientific forecaster discussion (NWS)

Units: English | Metric

Find the Weather for any City, State or Zipcode, or Country:

U.S. State List | Severe Weather | Tropical Storms | Ski Conditions
United States | Canada | Central America | South America | Asia | Europe | Australia | Africa | Islands

Weather Underground

© Copyright 2017
The Weather Company, LLC